Time;durP1;ratioP1;P1;durP2;ratioP2;P2;SDS_P1;SDS_P2;PMS_P1;PMS_P2;Temp;Humidity;BMP_temperature;BMP_pressure;BME280_temperature;BME280_humidity;BME280_pressure;Samples;Min_cycle;Max_cycle;Signal;HPM_P1;HPM_P2
2022/03/27 00:00:15;;;;;;;38.20;18.98;;;;;;;7.64;87.31;103187.09;4978454;28;20042;-64
2022/03/27 00:02:42;;;;;;;33.75;18.65;;;;;;;7.62;87.09;103183.56;4979963;28;20153;-63
2022/03/27 00:05:09;;;;;;;34.53;17.98;;;;;;;7.58;86.79;103182.75;4982006;28;20050;-64
2022/03/27 00:07:34;;;;;;;43.97;20.20;;;;;;;7.58;87.38;103176.53;4983616;28;20773;-64
2022/03/27 00:10:00;;;;;;;42.75;21.05;;;;;;;7.61;87.44;103185.34;4983961;28;20046;-63
2022/03/27 00:12:25;;;;;;;46.40;20.27;;;;;;;7.62;87.50;103175.59;4983745;28;20038;-63
2022/03/27 00:14:51;;;;;;;37.58;19.35;;;;;;;7.62;87.32;103179.13;4984215;28;20122;-63
2022/03/27 00:17:18;;;;;;;45.92;21.88;;;;;;;7.62;87.29;103181.78;4983761;28;20037;-64
2022/03/27 00:19:45;;;;;;;46.42;20.23;;;;;;;7.63;87.20;103185.31;4982217;28;20050;-64
2022/03/27 00:22:10;;;;;;;44.13;21.85;;;;;;;7.68;86.86;103183.47;4999370;28;20046;-63
2022/03/27 00:24:36;;;;;;;43.80;20.45;;;;;;;7.68;87.33;103179.09;4984228;28;20053;-64
2022/03/27 00:27:01;;;;;;;42.15;20.90;;;;;;;7.60;87.15;103183.59;5002614;28;20491;-64
2022/03/27 00:29:27;;;;;;;44.45;20.77;;;;;;;7.66;86.94;103187.94;5002886;28;20047;-64
2022/03/27 00:31:53;;;;;;;45.78;21.20;;;;;;;7.69;86.81;103178.19;5002180;28;20092;-64
2022/03/27 00:34:19;;;;;;;47.15;21.95;;;;;;;7.68;86.70;103183.47;5002889;28;20045;-64
2022/03/27 00:36:45;;;;;;;47.55;23.23;;;;;;;7.66;86.56;103183.50;4985026;28;20061;-63
2022/03/27 00:39:10;;;;;;;45.78;23.05;;;;;;;7.68;87.36;103176.44;5004114;28;20445;-64
2022/03/27 00:41:36;;;;;;;47.85;22.20;;;;;;;7.66;86.78;103178.19;4969389;28;20049;-64
2022/03/27 00:44:03;;;;;;;49.17;22.20;;;;;;;7.52;87.47;103173.06;4985412;28;20086;-64
2022/03/27 00:46:28;;;;;;;47.97;22.65;;;;;;;7.46;87.36;103183.78;5003417;28;20046;-63
2022/03/27 00:48:54;;;;;;;53.70;23.25;;;;;;;7.37;87.51;103180.34;4985664;28;20401;-64
2022/03/27 00:51:20;;;;;;;39.97;20.15;;;;;;;7.27;87.43;103183.13;5003584;28;20049;-64
2022/03/27 00:53:45;;;;;;;50.78;20.92;;;;;;;7.17;87.85;103183.25;4985674;28;20057;-63
2022/03/27 00:56:11;;;;;;;42.95;21.60;;;;;;;7.19;87.70;103187.66;4985450;28;20057;-63
2022/03/27 00:58:36;;;;;;;48.33;21.65;;;;;;;7.10;87.30;103194.84;4985828;28;20148;-65
2022/03/27 01:01:03;;;;;;;45.92;21.25;;;;;;;6.94;88.07;103188.81;4985213;28;20042;-64
2022/03/27 01:03:31;;;;;;;49.40;21.80;;;;;;;6.86;87.74;103188.00;4965520;28;20050;-64
2022/03/27 01:05:57;;;;;;;49.25;21.73;;;;;;;6.82;88.56;103194.22;4981713;28;20101;-63
2022/03/27 01:11:20;;;;;;;58.50;23.20;;;;;;;6.84;88.13;103189.81;4983064;28;20134;-64
2022/03/27 01:13:56;;;;;;;61.40;24.08;;;;;;;6.87;89.20;103190.63;4982873;28;20039;-63
2022/03/27 01:16:41;;;;;;;62.08;24.95;;;;;;;6.86;89.13;103190.66;4982243;28;20046;-63
2022/03/27 01:19:09;;;;;;;66.07;25.08;;;;;;;6.83;88.98;103186.28;4983517;28;20142;-64
2022/03/27 01:21:37;;;;;;;68.75;25.52;;;;;;;6.91;88.21;103192.38;4993716;28;20112;-63
2022/03/27 01:24:03;;;;;;;68.40;25.13;;;;;;;6.85;88.23;103187.13;4984525;28;20038;-63
2022/03/27 01:26:29;;;;;;;76.38;26.08;;;;;;;6.86;88.86;103188.88;5000980;28;20137;-63
2022/03/27 01:28:55;;;;;;;67.55;25.70;;;;;;;6.87;88.32;103185.31;4984562;28;20437;-63
2022/03/27 01:31:22;;;;;;;72.15;27.38;;;;;;;6.85;88.49;103180.94;5001991;28;20092;-63
2022/03/27 01:33:47;;;;;;;73.07;27.38;;;;;;;6.90;88.41;103180.00;4983478;28;20042;-64
2022/03/27 01:36:24;;;;;;;78.57;29.92;;;;;;;6.90;88.10;103181.78;4967324;28;20038;-64
2022/03/27 01:38:52;;;;;;;75.65;28.25;;;;;;;6.95;88.56;103180.84;5001296;28;20402;-63
2022/03/27 01:41:17;;;;;;;75.80;28.92;;;;;;;6.92;87.76;103177.31;5000125;28;20042;-63
2022/03/27 01:43:42;;;;;;;79.80;27.70;;;;;;;6.91;88.11;103181.75;5000717;28;20265;-63
2022/03/27 01:46:08;;;;;;;83.40;29.73;;;;;;;6.88;87.79;103179.16;5000293;28;20041;-63
2022/03/27 01:48:33;;;;;;;79.05;28.38;;;;;;;6.94;88.26;103179.09;4966801;28;20041;-63
2022/03/27 01:51:02;;;;;;;77.60;28.45;;;;;;;6.96;87.48;103187.88;5000866;28;20122;-63
2022/03/27 01:53:28;;;;;;;70.78;28.73;;;;;;;6.90;87.88;103176.47;5001218;28;20061;-63
2022/03/27 01:55:53;;;;;;;85.90;29.73;;;;;;;6.94;87.71;103176.44;5001169;28;20521;-63
2022/03/27 01:58:19;;;;;;;83.57;30.50;;;;;;;6.94;87.89;103179.09;4983485;28;20046;-63
2022/03/27 02:00:44;;;;;;;79.72;28.83;;;;;;;6.92;87.76;103174.69;4985575;28;20042;-65
2022/03/27 02:03:10;;;;;;;101.97;31.25;;;;;;;6.98;88.11;103172.84;4981802;28;20038;-63
2022/03/27 02:05:36;;;;;;;82.65;28.55;;;;;;;6.98;88.10;103177.28;4964139;28;20054;-63
2022/03/27 02:08:02;;;;;;;90.00;28.50;;;;;;;7.00;88.12;103168.41;4980480;28;20050;-63
2022/03/27 02:10:27;;;;;;;90.53;32.25;;;;;;;7.07;87.59;103182.47;4982250;28;20046;-63
2022/03/27 02:12:53;;;;;;;79.47;29.42;;;;;;;7.01;88.03;103170.16;4982498;28;20046;-63
2022/03/27 02:15:18;;;;;;;89.20;31.13;;;;;;;7.03;86.92;103171.91;4982278;28;20450;-63
2022/03/27 02:17:44;;;;;;;94.32;31.73;;;;;;;6.97;87.73;103181.69;4980743;28;20599;-62
2022/03/27 02:20:10;;;;;;;82.75;31.27;;;;;;;7.01;87.44;103174.59;4964674;28;20041;-64
2022/03/27 02:22:35;;;;;;;86.03;30.17;;;;;;;7.02;87.09;103171.03;4999078;28;20097;-63
2022/03/27 02:25:01;;;;;;;85.35;29.20;;;;;;;7.02;86.96;103176.34;5002512;28;20045;-63
2022/03/27 02:27:26;;;;;;;92.32;31.50;;;;;;;7.03;87.38;103178.13;5000841;28;20052;-63
2022/03/27 02:29:51;;;;;;;96.00;30.95;;;;;;;7.04;87.40;103182.53;5001554;28;20048;-65
2022/03/27 02:32:17;;;;;;;105.80;32.20;;;;;;;7.07;87.07;103185.13;5001646;28;20053;-62
2022/03/27 02:34:42;;;;;;;91.90;31.33;;;;;;;7.07;87.29;103184.25;5001456;28;20049;-62
2022/03/27 02:37:08;;;;;;;96.75;30.52;;;;;;;7.07;87.23;103179.81;4984085;28;20108;-63
2022/03/27 02:39:33;;;;;;;88.38;30.63;;;;;;;7.00;87.94;103176.34;4983898;28;20214;-63
2022/03/27 02:41:59;;;;;;;85.30;28.85;;;;;;;7.00;87.66;103180.78;5001049;28;20050;-64
2022/03/27 02:44:24;;;;;;;92.95;29.85;;;;;;;6.99;87.51;103177.25;5001473;28;20481;-66
2022/03/27 02:46:50;;;;;;;88.45;28.83;;;;;;;6.97;87.22;103181.69;4983052;28;20451;-64
2022/03/27 02:49:16;;;;;;;84.57;27.63;;;;;;;6.87;86.94;103184.44;5000888;28;20557;-63
2022/03/27 02:51:45;;;;;;;81.22;25.48;;;;;;;6.85;86.41;103184.47;4982863;28;20046;-62
2022/03/27 02:54:11;;;;;;;73.25;25.60;;;;;;;6.69;87.25;103180.22;5000448;28;20340;-63
2022/03/27 02:56:37;;;;;;;79.88;23.13;;;;;;;6.60;86.66;103175.00;5000573;28;20076;-62
2022/03/27 02:59:02;;;;;;;74.55;23.67;;;;;;;6.62;87.19;103182.03;5000325;28;20805;-63
2022/03/27 03:01:28;;;;;;;67.72;24.15;;;;;;;6.64;86.80;103180.25;4982877;28;20152;-63
2022/03/27 03:03:53;;;;;;;73.80;25.02;;;;;;;6.65;86.87;103175.84;5000667;28;20086;-63
2022/03/27 03:06:20;;;;;;;69.68;22.90;;;;;;;6.66;86.67;103172.28;4982383;28;20379;-63
2022/03/27 03:08:46;;;;;;;70.13;22.90;;;;;;;6.67;86.59;103166.97;5000864;28;20042;-63
2022/03/27 03:11:13;;;;;;;71.53;21.92;;;;;;;6.67;86.83;103174.03;5000397;28;20057;-63
2022/03/27 03:13:39;;;;;;;51.17;19.70;;;;;;;6.73;86.10;103166.06;5001218;28;20042;-63
2022/03/27 03:16:07;;;;;;;54.40;18.48;;;;;;;6.72;85.97;103169.56;5000201;28;20068;-63
2022/03/27 03:18:35;;;;;;;51.35;19.13;;;;;;;6.65;86.43;103166.13;5000285;28;20057;-63
2022/03/27 03:21:02;;;;;;;54.50;19.75;;;;;;;6.66;86.22;103164.34;5000000;28;20137;-65
2022/03/27 03:23:28;;;;;;;49.55;20.15;;;;;;;6.67;86.20;103155.47;4999763;28;20049;-63
2022/03/27 03:25:54;;;;;;;50.85;17.80;;;;;;;6.65;85.99;103167.88;4999825;28;20053;-63
2022/03/27 03:28:20;;;;;;;51.13;19.90;;;;;;;6.63;85.86;103165.25;4999858;28;20046;-64
2022/03/27 03:30:46;;;;;;;51.95;19.60;;;;;;;6.56;85.86;103158.25;4981993;28;20135;-62
2022/03/27 03:33:12;;;;;;;44.55;18.05;;;;;;;6.58;85.19;103159.13;4999101;28;20756;-64
2022/03/27 03:35:39;;;;;;;52.33;19.17;;;;;;;6.60;86.23;103162.63;4999766;28;20092;-63
2022/03/27 03:38:05;;;;;;;55.97;21.83;;;;;;;6.56;85.89;103160.00;4981534;28;20038;-63
2022/03/27 03:40:31;;;;;;;55.55;20.50;;;;;;;6.55;86.36;103151.19;4999907;28;20045;-64
2022/03/27 03:42:56;;;;;;;41.45;17.33;;;;;;;6.52;85.45;103158.28;4999559;28;20378;-63
2022/03/27 03:45:21;;;;;;;55.65;20.75;;;;;;;6.47;85.92;103156.53;4999817;28;20084;-63
2022/03/27 03:47:47;;;;;;;56.55;20.80;;;;;;;6.51;86.22;103151.22;4981801;28;20046;-63
2022/03/27 03:50:13;;;;;;;53.13;20.50;;;;;;;6.51;86.17;103152.09;5000582;28;20053;-63
2022/03/27 03:52:39;;;;;;;56.70;22.50;;;;;;;6.57;86.28;103153.81;4999336;28;20049;-63
2022/03/27 03:55:05;;;;;;;58.78;21.67;;;;;;;6.51;86.49;103151.22;4999788;28;20033;-63
2022/03/27 03:57:30;;;;;;;61.55;22.92;;;;;;;6.50;86.20;103142.41;4999930;28;20057;-64
2022/03/27 03:59:56;;;;;;;52.90;20.38;;;;;;;6.46;86.49;103148.63;4997718;28;20038;-63
2022/03/27 04:02:21;;;;;;;58.65;22.50;;;;;;;6.45;86.32;103153.03;5000440;28;20050;-64
2022/03/27 04:04:47;;;;;;;58.45;22.77;;;;;;;6.38;86.77;103154.00;4999709;28;20049;-63
2022/03/27 04:07:12;;;;;;;58.50;20.92;;;;;;;6.29;86.52;103162.03;4999166;28;20038;-63
2022/03/27 04:09:37;;;;;;;55.20;21.15;;;;;;;6.37;86.85;103170.78;4999514;28;20116;-63
2022/03/27 04:12:03;;;;;;;56.80;20.60;;;;;;;6.28;86.61;103170.00;4999497;28;20038;-63
2022/03/27 04:14:29;;;;;;;50.70;19.67;;;;;;;6.08;86.07;103173.66;4980647;28;20103;-63
2022/03/27 04:16:56;;;;;;;51.90;20.10;;;;;;;5.91;85.63;103173.75;4998828;28;20149;-63
2022/03/27 04:19:22;;;;;;;49.00;18.02;;;;;;;5.95;85.71;103174.63;4999168;28;20038;-64
2022/03/27 04:21:47;;;;;;;44.22;17.23;;;;;;;5.89;85.48;103178.16;4976997;28;20072;-63
2022/03/27 04:24:13;;;;;;;42.22;15.60;;;;;;;5.81;85.26;103165.84;4999034;28;20075;-63
2022/03/27 04:26:40;;;;;;;44.40;16.67;;;;;;;5.74;84.95;103170.31;4980269;28;20521;-63
2022/03/27 04:29:06;;;;;;;39.47;15.43;;;;;;;5.66;85.04;103166.81;4999143;28;20056;-63
2022/03/27 04:31:31;;;;;;;42.28;17.27;;;;;;;5.57;84.79;103167.78;4998846;28;20042;-63
2022/03/27 04:33:57;;;;;;;42.17;15.77;;;;;;;5.61;85.31;103171.25;4999141;28;20430;-64
2022/03/27 04:36:23;;;;;;;38.10;16.33;;;;;;;5.55;85.48;103177.47;4980644;28;20112;-64
2022/03/27 04:38:49;;;;;;;43.58;17.98;;;;;;;5.60;84.77;103173.03;4998231;28;20050;-63
2022/03/27 04:41:14;;;;;;;38.15;16.25;;;;;;;5.59;84.90;103170.41;4999772;28;20524;-63
2022/03/27 04:43:39;;;;;;;42.10;17.02;;;;;;;5.62;84.38;103180.94;4981630;28;20386;-63
2022/03/27 04:46:07;;;;;;;38.30;14.63;;;;;;;5.67;84.41;103182.72;4982065;28;20045;-63
2022/03/27 04:48:32;;;;;;;40.67;17.90;;;;;;;5.62;84.05;103180.94;5000926;28;20648;-63
2022/03/27 04:50:57;;;;;;;39.22;16.88;;;;;;;5.56;83.76;103181.00;5002621;28;20053;-63
2022/03/27 04:53:23;;;;;;;42.83;18.05;;;;;;;5.52;84.14;103184.53;5005364;28;20749;-65
2022/03/27 04:55:49;;;;;;;40.63;17.08;;;;;;;5.50;83.50;103187.19;4987349;28;20124;-64
2022/03/27 04:58:16;;;;;;;42.50;16.92;;;;;;;5.46;83.86;103183.66;5003330;28;20096;-64
2022/03/27 05:00:41;;;;;;;48.90;16.25;;;;;;;5.49;83.92;103179.28;4988896;28;20038;-63
2022/03/27 05:03:06;;;;;;;44.53;16.40;;;;;;;5.49;83.73;103184.56;4984362;28;20050;-63
2022/03/27 05:05:32;;;;;;;46.85;17.95;;;;;;;5.48;84.06;103185.47;4982493;28;20072;-63
2022/03/27 05:07:58;;;;;;;34.33;15.98;;;;;;;5.51;84.12;103183.66;4983413;28;20042;-63
2022/03/27 05:10:24;;;;;;;40.53;16.73;;;;;;;5.53;83.72;103187.19;4981207;28;20050;-63
2022/03/27 05:12:50;;;;;;;44.75;17.00;;;;;;;5.62;84.11;103179.22;4964653;28;20046;-65
2022/03/27 05:15:15;;;;;;;38.97;16.48;;;;;;;5.62;83.88;103186.25;4980849;28;20049;-63
2022/03/27 05:17:58;;;;;;;42.42;17.00;;;;;;;5.56;83.99;103187.16;4964607;28;20042;-63
2022/03/27 05:20:25;;;;;;;37.53;16.95;;;;;;;5.64;83.93;103192.44;4982322;28;20716;-63
2022/03/27 05:22:50;;;;;;;40.10;15.80;;;;;;;5.55;83.63;103195.13;4982268;28;20053;-64
2022/03/27 05:25:16;;;;;;;37.88;16.10;;;;;;;5.56;83.67;103188.94;4981018;28;20042;-65
2022/03/27 05:27:54;;;;;;;39.67;16.10;;;;;;;5.58;83.39;103181.88;4982744;28;20046;-64
2022/03/27 05:30:23;;;;;;;35.42;16.58;;;;;;;5.51;82.97;103193.34;4982641;28;20085;-66
2022/03/27 05:32:50;;;;;;;36.08;16.33;;;;;;;5.53;82.88;103191.59;4982504;28;20124;-63
2022/03/27 05:35:16;;;;;;;38.35;16.83;;;;;;;5.49;83.37;103196.03;4982657;28;20799;-63
2022/03/27 05:37:43;;;;;;;36.25;15.15;;;;;;;5.46;83.31;103191.59;4983819;28;20050;-63
2022/03/27 05:40:11;;;;;;;42.83;17.30;;;;;;;5.49;83.08;103195.16;4983992;28;20053;-64
2022/03/27 05:42:37;;;;;;;37.22;15.95;;;;;;;5.46;83.01;103194.25;4981168;28;20050;-64
2022/03/27 05:45:04;;;;;;;36.65;16.90;;;;;;;5.39;83.31;103189.00;4982934;28;20044;-63
2022/03/27 05:47:30;;;;;;;38.08;16.20;;;;;;;5.45;82.58;103188.97;4983044;28;20124;-66
2022/03/27 05:49:56;;;;;;;32.05;15.35;;;;;;;5.50;82.83;103194.25;4983160;28;20038;-64
2022/03/27 05:52:22;;;;;;;31.83;14.93;;;;;;;5.49;82.64;103196.03;4983793;28;20042;-64
2022/03/27 05:54:48;;;;;;;37.20;15.50;;;;;;;5.59;82.32;103191.56;4997572;28;20034;-64
2022/03/27 05:57:14;;;;;;;40.63;16.85;;;;;;;5.58;81.57;103190.69;4981205;28;20133;-63
2022/03/27 05:59:40;;;;;;;32.00;14.63;;;;;;;5.52;81.83;103193.34;4998192;28;20034;-62
2022/03/27 06:02:05;;;;;;;34.25;14.57;;;;;;;5.66;81.44;103195.94;5001407;28;20034;-63
2022/03/27 06:04:30;;;;;;;35.35;15.38;;;;;;;5.68;81.15;103194.19;5000901;28;20550;-63
2022/03/27 06:06:56;;;;;;;33.60;15.15;;;;;;;5.68;81.38;103191.53;4983417;28;20057;-63
2022/03/27 06:09:21;;;;;;;37.67;15.77;;;;;;;5.69;81.06;103195.94;5001318;28;20053;-63
2022/03/27 06:11:47;;;;;;;30.17;14.85;;;;;;;5.66;80.77;103206.53;5001220;28;20092;-63
2022/03/27 06:14:13;;;;;;;28.92;14.45;;;;;;;5.56;81.14;103202.16;4999573;28;20065;-64
2022/03/27 06:16:38;;;;;;;31.30;14.98;;;;;;;5.52;80.60;103203.94;5001242;28;20723;-64
2022/03/27 06:19:04;;;;;;;34.05;15.68;;;;;;;5.61;80.91;103197.72;5001457;28;20533;-63
2022/03/27 06:21:29;;;;;;;33.08;14.52;;;;;;;5.76;80.69;103210.00;4982735;28;20487;-63
2022/03/27 06:23:55;;;;;;;30.35;13.52;;;;;;;5.85;80.75;103205.53;4983296;28;20034;-63
2022/03/27 06:26:21;;;;;;;29.95;14.25;;;;;;;5.88;80.38;103212.59;5001140;28;20049;-63
2022/03/27 06:28:46;;;;;;;33.20;13.43;;;;;;;5.79;80.61;103208.22;5001720;28;20054;-62
2022/03/27 06:31:12;;;;;;;30.73;14.77;;;;;;;5.77;80.14;103207.34;4982584;28;20057;-63
2022/03/27 06:33:38;;;;;;;33.90;14.25;;;;;;;5.88;80.21;103212.59;5000547;28;20115;-63
2022/03/27 06:36:04;;;;;;;35.95;15.63;;;;;;;6.05;79.65;103210.75;5000596;28;20152;-63
2022/03/27 06:38:29;;;;;;;29.88;13.10;;;;;;;6.23;79.40;103215.94;4982006;28;20656;-63
2022/03/27 06:40:55;;;;;;;27.98;13.63;;;;;;;6.05;79.06;103216.06;5000830;28;20049;-63
2022/03/27 06:43:22;;;;;;;33.22;13.98;;;;;;;6.12;79.09;103220.41;5000452;28;20100;-63
2022/03/27 06:45:48;;;;;;;37.70;14.10;;;;;;;6.43;78.99;103218.44;5001102;28;20080;-63
2022/03/27 06:48:14;;;;;;;32.70;14.35;;;;;;;6.43;78.11;103225.53;4999596;28;20045;-63
2022/03/27 06:50:41;;;;;;;34.63;14.57;;;;;;;6.27;78.66;103222.06;4999429;28;20108;-63
2022/03/27 06:53:07;;;;;;;33.22;14.55;;;;;;;6.10;78.12;103221.31;4998579;28;20227;-63
2022/03/27 06:55:33;;;;;;;30.40;13.80;;;;;;;5.81;78.37;103219.69;5000478;28;20538;-63
2022/03/27 06:57:58;;;;;;;33.90;14.88;;;;;;;5.90;77.74;103217.00;4982438;28;20604;-63
2022/03/27 07:03:11;;;;;;;34.17;14.07;;;;;;;6.23;78.20;103217.72;5000431;28;20793;-63
2022/03/27 07:05:41;;;;;;;34.03;14.48;;;;;;;6.29;77.81;103216.78;4997336;28;20658;-62
2022/03/27 07:08:10;;;;;;;40.28;15.50;;;;;;;6.10;77.52;103221.31;5000119;28;20125;-62
2022/03/27 07:10:36;;;;;;;36.75;16.83;;;;;;;6.47;76.61;103217.50;4999252;28;20046;-63
2022/03/27 07:13:03;;;;;;;36.97;14.85;;;;;;;6.58;76.42;103213.91;4998289;28;20072;-64
2022/03/27 07:15:28;;;;;;;40.63;15.63;;;;;;;7.05;74.95;103205.50;4998971;28;20494;-63
2022/03/27 07:17:54;;;;;;;34.35;15.15;;;;;;;7.47;74.08;103204.09;5000383;28;20085;-63
2022/03/27 07:20:24;;;;;;;33.35;16.25;;;;;;;7.47;73.02;103213.84;5000864;28;20505;-65
2022/03/27 07:22:50;;;;;;;33.35;15.30;;;;;;;8.10;72.56;103210.34;4996030;28;20042;-63
2022/03/27 07:25:16;;;;;;;34.60;15.23;;;;;;;8.49;70.07;103207.13;5001387;28;20481;-63
2022/03/27 07:27:41;;;;;;;34.38;14.98;;;;;;;8.09;70.42;103197.97;5001678;28;20045;-64
2022/03/27 07:30:08;;;;;;;34.55;15.48;;;;;;;8.03;70.33;103210.47;4995905;28;20046;-63
2022/03/27 07:32:34;;;;;;;32.45;15.15;;;;;;;7.35;72.16;103203.41;5000901;28;20041;-63
2022/03/27 07:34:59;;;;;;;34.03;15.23;;;;;;;7.11;72.42;103200.13;5000819;28;20038;-63
2022/03/27 07:37:25;;;;;;;34.30;15.73;;;;;;;7.59;71.33;103204.88;5000850;28;20046;-62
2022/03/27 07:39:50;;;;;;;34.05;15.18;;;;;;;8.52;69.18;103215.00;5000592;28;20041;-64
2022/03/27 07:42:16;;;;;;;31.70;16.58;;;;;;;8.39;67.54;103201.97;4997699;28;20050;-62
2022/03/27 07:44:41;;;;;;;31.42;15.55;;;;;;;8.51;68.14;103207.06;4999839;28;20085;-63
2022/03/27 07:47:07;;;;;;;30.92;14.80;;;;;;;8.72;68.18;103200.50;4996711;28;20041;-63
2022/03/27 07:49:33;;;;;;;44.17;17.40;;;;;;;8.78;67.04;103209.25;4998296;28;20151;-62
2022/03/27 07:52:00;;;;;;;40.33;17.25;;;;;;;8.38;67.59;103210.81;4998157;28;20045;-63
2022/03/27 07:54:26;;;;;;;31.08;16.45;;;;;;;9.26;66.13;103203.03;4977780;28;20069;-63
2022/03/27 07:56:52;;;;;;;30.80;15.38;;;;;;;8.86;67.35;103209.13;4997539;28;20038;-64
2022/03/27 07:59:17;;;;;;;35.40;16.30;;;;;;;9.34;66.11;103206.44;5001635;28;20048;-64
2022/03/27 08:01:43;;;;;;;34.58;14.80;;;;;;;9.43;66.53;103203.56;4998693;28;20045;-63
2022/03/27 08:04:08;;;;;;;30.65;15.23;;;;;;;9.03;66.17;103211.47;4998115;28;20046;-64
2022/03/27 08:06:36;;;;;;;31.50;14.90;;;;;;;9.24;65.09;103215.53;4997130;28;20041;-63
2022/03/27 08:09:06;;;;;;;32.67;15.90;;;;;;;8.47;67.68;103219.53;4999473;28;20099;-65
2022/03/27 08:11:31;;;;;;;41.50;16.00;;;;;;;8.27;67.48;103225.13;4995694;28;20037;-63
2022/03/27 08:13:57;;;;;;;34.30;15.90;;;;;;;9.08;67.60;103221.09;5000310;28;20063;-63
2022/03/27 08:16:22;;;;;;;34.28;15.55;;;;;;;9.21;66.09;103224.44;5004779;28;20041;-63
2022/03/27 08:18:48;;;;;;;29.55;14.93;;;;;;;8.72;65.04;103227.09;5016732;28;20096;-64
2022/03/27 08:21:13;;;;;;;36.70;16.98;;;;;;;9.14;65.73;103224.59;5005542;28;20131;-64
2022/03/27 08:23:39;;;;;;;36.25;16.15;;;;;;;9.23;63.48;103224.38;4981532;28;20190;-64
2022/03/27 08:28:48;;;;;;;28.05;14.23;;;;;;;8.83;65.47;103225.13;5010611;28;20041;-64
2022/03/27 08:31:14;;;;;;;31.42;15.15;;;;;;;8.91;64.61;103219.69;5020026;28;20049;-63
2022/03/27 08:33:39;;;;;;;30.88;14.32;;;;;;;9.10;64.66;103222.88;5004954;28;20072;-64
2022/03/27 08:36:04;;;;;;;32.47;14.80;;;;;;;8.92;64.93;103214.31;5005552;28;20036;-63
2022/03/27 08:38:30;;;;;;;34.00;15.77;;;;;;;8.72;65.97;103224.44;4983246;28;20042;-63
2022/03/27 08:40:55;;;;;;;29.45;14.27;;;;;;;9.33;63.46;103223.31;5004694;28;20053;-63
2022/03/27 08:43:21;;;;;;;36.33;16.20;;;;;;;9.12;65.62;103213.94;4983203;28;20077;-63
2022/03/27 08:45:47;;;;;;;34.05;16.48;;;;;;;9.26;63.41;103219.88;5001319;28;20089;-63
2022/03/27 08:48:13;;;;;;;33.65;14.95;;;;;;;9.80;65.52;103216.13;5007035;28;20588;-64
2022/03/27 08:51:12;;;;;;;31.75;15.57;;;;;;;9.59;65.54;103212.16;5014398;28;20052;-63
2022/03/27 08:53:46;;;;;;;27.38;13.57;;;;;;;9.51;64.08;103214.06;4965097;28;20740;-63
2022/03/27 08:56:12;;;;;;;27.08;13.30;;;;;;;9.50;64.03;103207.00;5003834;28;20090;-66
2022/03/27 08:58:40;;;;;;;26.40;14.43;;;;;;;10.04;63.41;103214.66;5001794;28;20505;-63
2022/03/27 09:01:07;;;;;;;32.35;15.02;;;;;;;10.38;61.16;103209.47;5010463;28;20045;-62
2022/03/27 09:03:33;;;;;;;25.48;13.02;;;;;;;9.98;61.79;103212.16;5001363;28;20094;-63
2022/03/27 09:06:01;;;;;;;32.13;13.88;;;;;;;9.96;63.77;103212.19;5017161;28;20029;-63
2022/03/27 09:08:29;;;;;;;21.70;12.18;;;;;;;10.14;61.39;103210.91;5007880;28;20089;-63
2022/03/27 09:10:55;;;;;;;27.92;12.77;;;;;;;9.95;60.20;103207.78;5008568;28;20555;-63
2022/03/27 09:13:21;;;;;;;31.25;13.65;;;;;;;10.29;60.37;103204.34;5001098;28;20136;-63
2022/03/27 09:15:58;;;;;;;25.75;13.27;;;;;;;10.61;59.41;103206.22;4999029;28;20569;-63
2022/03/27 09:18:24;;;;;;;26.33;13.23;;;;;;;10.38;60.07;103201.47;5001284;28;20052;-64
2022/03/27 09:20:52;;;;;;;24.80;11.82;;;;;;;9.75;60.48;103205.56;5000580;28;20045;-63
2022/03/27 09:23:24;;;;;;;25.13;12.75;;;;;;;9.98;60.89;103204.16;5000476;28;20050;-63
2022/03/27 09:26:02;;;;;;;31.50;12.38;;;;;;;10.01;58.31;103202.31;4982931;28;20069;-64
2022/03/27 09:28:40;;;;;;;27.42;12.75;;;;;;;10.80;58.60;103199.50;5007862;28;20079;-63
2022/03/27 09:31:21;;;;;;;25.52;12.45;;;;;;;10.25;59.49;103200.91;5020383;28;20057;-64
2022/03/27 09:33:50;;;;;;;21.13;11.68;;;;;;;10.25;62.69;103197.34;5001972;28;20037;-64
2022/03/27 09:36:39;;;;;;;21.98;12.23;;;;;;;10.15;60.44;103201.13;4981638;28;20045;-62
2022/03/27 09:39:31;;;;;;;22.75;12.15;;;;;;;10.63;57.70;103191.03;5012194;28;20065;-63
2022/03/27 09:41:59;;;;;;;22.33;11.25;;;;;;;10.08;58.25;103203.03;5017448;28;20087;-63
2022/03/27 09:44:34;;;;;;;26.20;11.95;;;;;;;10.50;61.11;103193.16;5013780;28;20050;-62
2022/03/27 09:46:59;;;;;;;25.98;11.15;;;;;;;10.20;58.29;103202.75;4994192;28;20041;-63
2022/03/27 09:49:30;;;;;;;22.80;11.52;;;;;;;10.95;58.04;103192.00;4987308;28;20152;-63
2022/03/27 09:51:58;;;;;;;24.73;11.15;;;;;;;11.08;57.80;103191.59;5016392;28;20376;-63
2022/03/27 09:54:25;;;;;;;31.67;13.07;;;;;;;10.59;57.96;103192.03;5005156;28;20066;-62
2022/03/27 09:56:51;;;;;;;27.58;12.82;;;;;;;11.08;59.31;103188.06;5020651;28;20044;-64
2022/03/27 09:59:32;;;;;;;27.23;12.43;;;;;;;11.25;58.58;103179.59;5016519;28;20741;-63
2022/03/27 10:02:28;;;;;;;21.67;11.68;;;;;;;11.07;55.74;103184.53;4985554;28;20040;-63
2022/03/27 10:05:05;;;;;;;28.35;12.25;;;;;;;10.78;57.01;103176.44;5014199;28;20058;-63
2022/03/27 10:07:44;;;;;;;24.20;11.25;;;;;;;10.76;55.54;103180.94;5003889;28;20533;-64
2022/03/27 10:10:12;;;;;;;24.15;11.60;;;;;;;11.18;54.51;103165.53;4963073;28;20042;-63
2022/03/27 10:12:39;;;;;;;19.88;10.77;;;;;;;10.72;55.30;103177.47;4964156;28;20873;-62
2022/03/27 10:15:12;;;;;;;24.40;11.45;;;;;;;10.74;55.14;103174.75;5004928;28;20098;-64
2022/03/27 10:17:39;;;;;;;25.80;12.00;;;;;;;10.77;55.11;103172.00;5003939;28;20057;-63
2022/03/27 10:20:16;;;;;;;27.35;12.30;;;;;;;10.66;56.23;103166.09;5016561;28;20049;-63
2022/03/27 10:22:47;;;;;;;25.85;11.68;;;;;;;11.24;55.13;103161.78;5001977;28;20449;-63
2022/03/27 10:25:16;;;;;;;22.13;11.82;;;;;;;11.66;56.33;103157.84;4969520;28;20046;-64
2022/03/27 10:27:43;;;;;;;23.58;12.25;;;;;;;11.13;54.94;103157.63;5003516;28;20066;-63
2022/03/27 10:30:10;;;;;;;23.13;10.85;;;;;;;10.83;53.45;103159.38;5002617;28;20042;-62
2022/03/27 10:32:38;;;;;;;22.98;11.23;;;;;;;11.14;54.80;103155.84;5001954;28;20069;-62
2022/03/27 10:35:26;;;;;;;19.95;10.77;;;;;;;11.29;55.52;103158.06;5001498;28;20065;-62
2022/03/27 10:38:13;;;;;;;24.20;12.15;;;;;;;11.66;54.84;103152.50;5003322;28;20046;-63
2022/03/27 10:40:49;;;;;;;24.08;10.80;;;;;;;11.04;54.13;103152.56;5012064;28;20053;-63
2022/03/27 10:43:34;;;;;;;23.00;10.88;;;;;;;11.65;53.93;103144.56;4982238;28;20168;-63
2022/03/27 10:46:14;;;;;;;24.45;11.98;;;;;;;11.76;55.29;103141.53;5016824;28;20045;-63
2022/03/27 10:48:42;;;;;;;28.67;11.07;;;;;;;11.78;53.94;103139.69;4996524;28;20600;-64
2022/03/27 10:51:09;;;;;;;19.02;10.38;;;;;;;11.81;55.87;103139.59;5006096;28;20049;-62
2022/03/27 10:53:36;;;;;;;24.05;10.70;;;;;;;11.68;52.85;103129.28;4981357;28;20663;-62
2022/03/27 10:56:03;;;;;;;20.52;11.05;;;;;;;12.07;56.30;103134.31;4986697;28;20052;-62
2022/03/27 10:58:34;;;;;;;19.83;10.80;;;;;;;12.17;55.38;103130.41;5010472;28;20794;-63
2022/03/27 11:01:03;;;;;;;29.43;11.60;;;;;;;12.13;53.63;103130.56;4978584;28;20117;-64
2022/03/27 11:03:50;;;;;;;21.13;9.93;;;;;;;12.22;52.54;103116.00;4980806;28;20074;-63
2022/03/27 11:06:27;;;;;;;19.25;9.80;;;;;;;12.73;50.53;103118.66;4990631;28;20033;-63
2022/03/27 11:08:54;;;;;;;20.38;11.05;;;;;;;12.46;50.66;103120.53;4991478;28;20046;-63
2022/03/27 11:11:53;;;;;;;23.45;9.93;;;;;;;12.49;52.93;103117.72;5014346;28;20099;-62
2022/03/27 11:14:23;;;;;;;22.55;10.77;;;;;;;12.81;53.54;103113.03;4968783;28;20912;-63
2022/03/27 11:17:07;;;;;;;18.50;10.43;;;;;;;12.79;50.90;103109.53;5000776;28;20057;-66
2022/03/27 11:19:44;;;;;;;24.83;10.32;;;;;;;12.90;51.46;103105.56;5000254;28;20050;-63
2022/03/27 11:22:47;;;;;;;23.92;10.35;;;;;;;12.93;52.27;103112.59;4984406;28;20049;-63
2022/03/27 11:25:36;;;;;;;;;;;;;;;12.79;53.77;103099.69;5000577;28;20038;-63
2022/03/27 11:28:16;;;;;;;21.38;9.88;;;;;;;12.82;51.75;103091.56;4976267;28;20387;-62